Home > Products > Valid Products > TAF

000
FTUS44 KSJT 180600 AAA
TAFSJT
TAF AMD
KSJT 180659Z 1807/1906 04010KT P6SM OVC010
     FM181000 VRB03KT 6SM BR OVC007
     FM181500 08007KT P6SM OVC015
     FM181700 13007KT P6SM SCT025
     FM190000 11008KT P6SM SKC=



000
FTUS44 KSJT 180600 AAA
TAFABI
TAF AMD
KABI 180613Z 1806/1906 33006KT 5SM BR OVC004
     FM181400 15005KT P6SM OVC015
     FM182000 14006KT P6SM SCT025
     FM190000 13009KT P6SM BKN250=



000
FTUS44 KSJT 180500
TAFSJT
TAF
KSJT 180520Z 1806/1906 04010KT P6SM OVC007
     FM180700 VRB03KT 6SM BR OVC007
     FM181500 08007KT P6SM OVC015
     FM181700 13007KT P6SM SCT025
     FM190000 11008KT P6SM SKC=



000
FTUS44 KSJT 180500
TAFJCT
TAF
KJCT 180520Z 1806/1906 VRB04KT P6SM OVC015
     FM180800 VRB03KT 6SM BR OVC007
     FM181500 09005KT P6SM OVC015
     FM181800 10005KT P6SM OVC050
     FM182300 10006KT P6SM OVC250=



000
FTUS44 KSJT 180500
TAFABI
TAF
KABI 180520Z 1806/1906 33006KT P6SM OVC006
     FM181700 15005KT P6SM OVC015
     FM182000 14006KT P6SM SCT025
     FM190000 13009KT P6SM BKN250=



000
FTUS44 KSJT 180200 AAB
TAFABI
TAF AMD
KABI 180252Z 1803/1824 03009KT P6SM BKN009 OVC016
     FM181700 13006KT P6SM SCT025=



000
FTUS44 KSJT 180100 AAA
TAFABI
TAF AMD
KABI 180125Z 1801/1824 03009KT P6SM FEW009 OVC016
     FM181700 13006KT P6SM SCT025=



000
FTUS44 KSJT 172300
TAFSJT
TAF
KSJT 172320Z 1800/1824 08008KT P6SM OVC050
     FM180300 03006KT P6SM OVC025
     FM180900 03005KT P6SM OVC015
     FM181700 13006KT P6SM SCT025=



000
FTUS44 KSJT 172300
TAFJCT
TAF
KJCT 172320Z 1800/1824 07007KT P6SM OVC050
     FM180400 VRB05KT P6SM OVC012
     FM181800 10006KT P6SM SCT025=



000
FTUS44 KSJT 172300
TAFABI
TAF
KABI 172320Z 1800/1824 03009KT P6SM BKN030
     FM180300 03006KT P6SM OVC015
     FM181700 13006KT P6SM SCT025=



000
FTUS44 KSJT 171900 AAB
TAFJCT
TAF AMD
KJCT 171959Z 1720/1818 14007KT P6SM OVC035
     FM180200 08006KT P6SM OVC015
     FM180500 VRB03KT P6SM OVC008=



000
FTUS44 KSJT 171900 AAA
TAFJCT
TAF AMD
KJCT 171956Z 1720/1818 14010KT P6SM OVC035
     FM180200 08006KT P6SM OVC015
     FM180500 VRB03KT P6SM OVC008=



000
FTUS44 KSJT 171800 AAA
TAFSJT
TAF AMD
KSJT 171832Z 1719/1818 14008KT P6SM OVC035
     FM172000 10008KT P6SM OVC040
     FM180500 03005KT P6SM OVC018=



000
FTUS44 KSJT 171700
TAFJCT
TAF
KJCT 171720Z 1718/1818 14010KT P6SM OVC025
     FM172100 13007KT P6SM OVC040
     FM180200 08006KT P6SM OVC015
     FM180500 VRB03KT P6SM OVC008=



000
FTUS44 KSJT 171700
TAFABI
TAF
KABI 171720Z 1718/1818 13011KT P6SM OVC018
     FM172000 01008KT P6SM OVC025
     FM180300 04006KT P6SM OVC015=



000
FTUS44 KSJT 171700
TAFSJT
TAF
KSJT 171720Z 1718/1818 14010KT P6SM OVC028
     FM172000 10008KT P6SM OVC040
     FM180500 03005KT P6SM OVC018=



000
FTUS44 KSJT 171500 AAC
TAFABI
TAF AMD
KABI 171511Z 1715/1812 13011KT P6SM OVC008
      TEMPO 1715/1717 OVC035
     FM171700 17011KT P6SM OVC018
     FM172000 01008KT P6SM OVC028
     FM180300 05009KT P6SM OVC015=



000
FTUS44 KSJT 171500 AAA
TAFJCT
TAF AMD
KJCT 171501Z 1715/1812 14011KT P6SM OVC022
     FM171700 17010G18KT P6SM OVC028
     FM172100 13007KT P6SM OVC040
     FM180200 08006KT P6SM OVC015=



000
FTUS44 KSJT 171500 AAB
TAFABI
TAF AMD
KABI 171500Z 1715/1812 14011KT P6SM OVC035 WS015/16045KT
     FM171600 17011KT P6SM OVC018
     FM172000 01008KT P6SM OVC028
     FM180300 05009KT P6SM OVC015=



000
FTUS44 KSJT 171400 AAA
TAFABI
TAF AMD
KABI 171402Z 1714/1812 14011KT 6SM BR OVC015 WS015/16045KT
     FM171600 17011KT P6SM OVC018
     FM172000 01008KT P6SM OVC028
     FM180300 05009KT P6SM OVC015=



000
FTUS44 KSJT 171300 AAA
TAFSJT
TAF AMD
KSJT 171348Z 1714/1812 17010KT P6SM OVC022 WS015/18045KT
     FM171500 16016G22KT P6SM OVC028
     FM172200 10008KT P6SM OVC040
     FM180400 04008KT P6SM OVC018=



000
FTUS44 KSJT 171100
TAFSJT
TAF
KSJT 171129Z 1712/1812 17010G20KT P6SM OVC018 WS015/18045KT
     FM171500 16016G22KT P6SM OVC028
     FM172200 10008KT P6SM OVC040
     FM180400 04008KT P6SM OVC018=



000
FTUS44 KSJT 171100
TAFJCT
TAF
KJCT 171129Z 1712/1812 17010G17KT P6SM OVC017
     FM171700 17010G18KT P6SM OVC028
     FM172100 13007KT P6SM OVC040
     FM180200 08006KT P6SM OVC015=



000
FTUS44 KSJT 171100
TAFABI
TAF
KABI 171129Z 1712/1812 15016G22KT P6SM OVC018 WS015/16045KT
     FM171600 17011KT P6SM OVC018
     FM172000 01008KT P6SM OVC028
     FM180300 05009KT P6SM OVC015=



000
FTUS44 KSJT 170800 AAA
TAFSJT
TAF AMD
KSJT 170826Z 1708/1806 16007KT P6SM SKC WS015/18045KT
     FM171100 17014G21KT P6SM OVC015 WS015/18045KT
     FM171300 18016G22KT P6SM OVC015
     FM171900 13009KT P6SM SCT025 OVC060
     FM180000 04008KT P6SM SKC=



000
FTUS44 KSJT 170500
TAFJCT
TAF
KJCT 170520Z 1706/1806 VRB05KT P6SM OVC250
     FM170700 17010G17KT P6SM OVC015
     FM171900 18007KT P6SM OVC015
     FM172300 14007KT P6SM OVC015
     FM180100 10005KT P6SM OVC015=



000
FTUS44 KSJT 170500
TAFSJT
TAF
KSJT 170520Z 1706/1806 16007KT P6SM SKC WS015/18045KT
     FM170800 17014G21KT P6SM OVC015 WS015/18045KT
     FM171200 18016G22KT P6SM OVC015
     FM171900 13009KT P6SM SCT025 OVC060
     FM180000 04008KT P6SM SKC=



000
FTUS44 KSJT 170500
TAFABI
TAF
KABI 170520Z 1706/1806 16016G24KT P6SM SKC WS015/16045KT
     FM171000 17016G22KT P6SM OVC015 WS015/16045KT
     FM171600 17011KT P6SM OVC015
     FM172000 34008KT P6SM OVC015
     FM180000 05009KT P6SM OVC015
     FM180300 13009KT P6SM SKC=



000
FTUS44 KSJT 162300
TAFJCT
TAF
KJCT 162340Z 1700/1724 17014G22KT P6SM BKN250
     FM170200 16010KT P6SM BKN250
     FM170700 16010KT P6SM BKN012
     FM171800 19012KT P6SM SCT025=



000
FTUS44 KSJT 162300
TAFSJT
TAF
KSJT 162340Z 1700/1724 18014G22KT P6SM FEW250 WS015/18045KT
     FM170900 18014G24KT P6SM OVC013 WS015/18045KT
     FM171200 18016G24KT P6SM OVC013
     FM171800 20012KT P6SM SCT025=



000
FTUS44 KSJT 162300
TAFABI
TAF
KABI 162340Z 1700/1724 18016G26KT P6SM FEW250 WS015/16045KT
     FM171000 16014G24KT P6SM OVC015 WS015/16045KT
     FM171300 17018G24KT P6SM OVC015
     FM172000 03010KT P6SM SCT025=



000
FTUS44 KSJT 161700
TAFABI
TAF
KABI 161727Z 1618/1718 18020G30KT P6SM FEW250
     FM170200 16015KT P6SM SCT250
     FM171000 16015G23KT P6SM BKN015=



000
FTUS44 KSJT 161700
TAFJCT
TAF
KJCT 161727Z 1618/1718 17014G22KT P6SM FEW250
     FM170200 15010KT P6SM SCT250
     FM170900 16011KT P6SM BKN015=



000
FTUS44 KSJT 161700
TAFSJT
TAF
KSJT 161727Z 1618/1718 18018G25KT P6SM FEW250
     FM170100 16011G18KT P6SM FEW250
     FM171200 19015G21KT P6SM BKN015=



000
FTUS44 KSJT 161400 AAA
TAFJCT
TAF AMD
KJCT 161415Z 1614/1712 17014G23KT P6SM SCT250
     FM170200 16010KT P6SM BKN250=



000
FTUS44 KSJT 161100
TAFJCT
TAF
KJCT 161120Z 1612/1712 15005KT P6SM SCT250
     FM161500 18013G24KT P6SM BKN250=



000
FTUS44 KSJT 161100
TAFABI
TAF
KABI 161120Z 1612/1712 16015G22KT P6SM BKN250
     FM161400 18022G34KT P6SM BKN250=



000
FTUS44 KSJT 161100
TAFSJT
TAF
KSJT 161120Z 1612/1712 18012G20KT P6SM BKN250
     FM161400 19018G31KT P6SM BKN250=



000
FTUS44 KSJT 152300
TAFABI
TAF
KABI 152320Z 1600/1624 17010KT P6SM SKC
     FM160900 16015G22KT P6SM SKC
     FM161400 18022G34KT P6SM BKN250=



000
FTUS44 KSJT 152300
TAFSJT
TAF
KSJT 152320Z 1600/1624 17009KT P6SM SKC
     FM160800 18012G20KT P6SM SKC
     FM161400 19018G31KT P6SM BKN250=



000
FTUS44 KSJT 152300
TAFJCT
TAF
KJCT 152320Z 1600/1624 15005KT P6SM SKC
     FM161500 18013G24KT P6SM BKN250=



000
FTUS44 KSJT 151700
TAFABI
TAF
KABI 151728Z 1518/1618 18010KT P6SM SKC
     FM161000 17015G23KT P6SM SCT250=



000
FTUS44 KSJT 151700
TAFSJT
TAF
KSJT 151728Z 1518/1618 18010KT P6SM SKC
     FM161400 19015G23KT P6SM SCT250=



000
FTUS44 KSJT 151700
TAFJCT
TAF
KJCT 151728Z 1518/1618 15007KT P6SM SKC
     FM161200 18010KT P6SM SCT250=



000
FTUS44 KSJT 151100
TAFJCT
TAF
KJCT 151126Z 1512/1612 VRB03KT P6SM SKC
     FM151800 15007KT P6SM SKC=



000
FTUS44 KSJT 151100
TAFABI
TAF
KABI 151126Z 1512/1612 VRB03KT P6SM SKC
     FM151600 18010KT P6SM SKC=



000
FTUS44 KSJT 151100
TAFSJT
TAF
KSJT 151126Z 1512/1612 VRB03KT P6SM SKC
     FM151600 17010KT P6SM SKC=



    US Dept of Commerce
    National Oceanic and Atmospheric Administration
    National Weather Service
    1325 East West Highway
    Silver Spring, MD 20910
    Page Author: NWS Internet Services Team
Disclaimer
Information Quality
Credits
Glossary
Privacy Policy
Freedom of Information Act (FOIA)
About Us
Career Opportunities